Time;durP1;ratioP1;P1;durP2;ratioP2;P2;SDS_P1;SDS_P2;PMS_P1;PMS_P2;Temp;Humidity;BMP_temperature;BMP_pressure;BME280_temperature;BME280_humidity;BME280_pressure;Samples;Min_cycle;Max_cycle;Signal;HPM_P1;HPM_P2
2022/11/01 00:01:28;;;;;;;;;;;13.30;99.90;;;;;;5090682;28;19994;-71
2022/11/01 00:03:54;;;;;;;;;;;13.30;99.90;;;;;;5090634;28;19916;-71
2022/11/01 00:06:20;;;;;;;;;;;13.30;99.90;;;;;;5090585;28;20003;-70
2022/11/01 00:08:46;;;;;;;;;;;13.30;99.90;;;;;;5090531;28;19915;-70
2022/11/01 00:11:13;;;;;;;;;;;13.30;99.90;;;;;;5090466;28;19918;-70
2022/11/01 00:13:38;;;;;;;;;;;13.30;99.90;;;;;;5090480;28;19908;-70
2022/11/01 00:16:04;;;;;;;;;;;13.30;99.90;;;;;;5089382;28;19954;-71
2022/11/01 00:18:30;;;;;;;;;;;13.30;99.90;;;;;;5090597;28;19927;-71
2022/11/01 00:20:55;;;;;;;;;;;13.30;99.90;;;;;;5090350;28;19908;-71
2022/11/01 00:23:21;;;;;;;;;;;13.30;99.90;;;;;;5090342;28;20366;-71
2022/11/01 00:25:46;;;;;;;;;;;13.30;99.90;;;;;;5088966;28;19931;-71
2022/11/01 00:28:12;;;;;;;;;;;13.30;99.90;;;;;;5090177;28;19967;-70
2022/11/01 00:30:38;;;;;;;;;;;13.30;99.90;;;;;;5096334;28;20015;-70
2022/11/01 00:33:03;;;;;;;;;;;13.30;99.90;;;;;;5110395;28;19908;-70
2022/11/01 00:35:30;;;;;;;;;;;13.40;99.90;;;;;;5110397;28;19916;-71
2022/11/01 00:37:57;;;;;;;;;;;13.40;99.90;;;;;;5092314;28;19908;-71
2022/11/01 00:40:22;;;;;;;;;;;13.50;99.90;;;;;;5110308;28;19908;-70
2022/11/01 00:42:47;;;;;;;;;;;13.40;99.90;;;;;;5101598;28;19914;-70
2022/11/01 00:45:13;;;;;;;;;;;13.40;99.90;;;;;;5078660;28;19961;-70
2022/11/01 00:47:38;;;;;;;;;;;13.40;99.90;;;;;;5096637;28;19957;-71
2022/11/01 00:50:04;;;;;;;;;;;13.40;99.90;;;;;;5096477;28;19957;-70
2022/11/01 00:52:30;;;;;;;;;;;13.40;99.90;;;;;;5078430;28;19918;-70
2022/11/01 00:54:55;;;;;;;;;;;13.40;99.90;;;;;;5096410;28;19915;-71
2022/11/01 00:57:20;;;;;;;;;;;13.40;99.90;;;;;;5096380;28;19908;-70
2022/11/01 00:59:46;;;;;;;;;;;13.40;99.90;;;;;;5096649;28;19908;-71
2022/11/01 01:02:11;;;;;;;;;;;13.40;99.90;;;;;;5078293;28;19908;-70
2022/11/01 01:04:41;;;;;;;;;;;13.60;99.90;;;;;;5078272;28;19908;-70
2022/11/01 01:07:06;;;;;;;;;;;13.70;99.90;;;;;;5096151;28;19908;-71
2022/11/01 01:09:32;;;;;;;;;;;13.80;99.90;;;;;;5078145;28;19908;-71
2022/11/01 01:11:58;;;;;;;;;;;13.80;99.90;;;;;;5096083;28;19912;-71
2022/11/01 01:14:23;;;;;;;;;;;13.80;99.90;;;;;;5096062;28;19909;-71
2022/11/01 01:16:49;;;;;;;;;;;13.70;99.90;;;;;;5061218;28;19908;-70
2022/11/01 01:19:14;;;;;;;;;;;13.80;99.90;;;;;;5077915;28;19908;-71
2022/11/01 01:21:40;;;;;;;;;;;13.80;99.90;;;;;;5095927;28;19919;-71
2022/11/01 01:24:05;;;;;;;;;;;13.90;99.90;;;;;;5095826;28;19958;-71
2022/11/01 01:26:30;;;;;;;;;;;14.00;99.90;;;;;;5077719;28;19908;-71
2022/11/01 01:28:56;;;;;;;;;;;14.10;99.90;;;;;;5095808;28;19912;-71
2022/11/01 01:31:21;;;;;;;;;;;14.20;99.90;;;;;;5077397;28;19967;-71
2022/11/01 01:33:47;;;;;;;;;;;14.60;99.90;;;;;;5095731;28;20270;-71
2022/11/01 01:36:12;;;;;;;;;;;15.00;99.90;;;;;;5095693;28;20365;-70
2022/11/01 01:38:38;;;;;;;;;;;15.30;99.90;;;;;;5095631;28;19999;-71
2022/11/01 01:43:49;;;;;;;;;;;16.10;99.90;;;;;;5095310;28;20381;-71
2022/11/01 01:46:15;;;;;;;;;;;16.30;99.90;;;;;;5077268;28;19908;-70
2022/11/01 01:48:41;;;;;;;;;;;16.60;99.90;;;;;;5077397;28;20361;-71
2022/11/01 01:51:09;;;;;;;;;;;16.70;99.90;;;;;;5095312;28;20017;-71
2022/11/01 01:53:37;;;;;;;;;;;16.80;99.90;;;;;;5094498;28;19963;-71
2022/11/01 01:56:05;;;;;;;;;;;16.90;99.90;;;;;;5095059;28;19915;-71
2022/11/01 01:58:34;;;;;;;;;;;16.90;99.90;;;;;;5095195;28;19912;-71
2022/11/01 02:00:59;;;;;;;;;;;16.90;99.90;;;;;;5095423;28;19957;-71
2022/11/01 02:03:27;;;;;;;;;;;16.80;99.90;;;;;;5095077;28;19908;-71
2022/11/01 02:05:54;;;;;;;;;;;16.80;99.90;;;;;;5095063;28;19915;-71
2022/11/01 02:08:26;;;;;;;;;;;16.80;99.90;;;;;;5094928;28;19934;-71
2022/11/01 02:10:56;;;;;;;;;;;16.90;99.90;;;;;;5095070;28;19916;-71
2022/11/01 02:13:22;;;;;;;;;;;16.80;99.90;;;;;;5076708;28;19908;-71
2022/11/01 02:15:56;;;;;;;;;;;16.80;99.90;;;;;;5076791;28;20385;-71
2022/11/01 02:18:26;;;;;;;;;;;16.70;99.90;;;;;;5094845;28;20429;-71
2022/11/01 02:21:12;;;;;;;;;;;16.80;99.90;;;;;;5094788;28;19909;-71
2022/11/01 02:23:57;;;;;;;;;;;16.90;99.90;;;;;;5094751;28;19912;-71
2022/11/01 02:26:43;;;;;;;;;;;16.80;99.90;;;;;;5076466;28;19908;-71
2022/11/01 02:32:10;;;;;;;;;;;16.90;99.90;;;;;;5066665;22;19924;-71
2022/11/01 02:34:42;;;;;;;;;;;16.90;99.90;;;;;;5051458;28;19952;-72
2022/11/01 02:37:11;;;;;;;;;;;16.80;99.90;;;;;;5051724;28;19913;-72
2022/11/01 02:39:39;;;;;;;;;;;16.80;99.90;;;;;;5016965;28;20359;-71
2022/11/01 02:42:10;;;;;;;;;;;16.80;99.90;;;;;;5033379;28;19912;-72
2022/11/01 02:44:38;;;;;;;;;;;16.80;99.90;;;;;;5033552;28;20366;-71
2022/11/01 02:47:04;;;;;;;;;;;16.80;99.90;;;;;;5033404;28;19913;-71
2022/11/01 02:49:36;;;;;;;;;;;16.80;99.90;;;;;;5033013;28;20428;-71
2022/11/01 02:52:02;;;;;;;;;;;16.70;99.90;;;;;;5033293;28;19967;-71
2022/11/01 02:54:33;;;;;;;;;;;16.60;99.90;;;;;;5051765;28;20008;-71
2022/11/01 02:57:04;;;;;;;;;;;16.60;99.90;;;;;;5051230;28;20290;-71
2022/11/01 02:59:29;;;;;;;;;;;16.60;99.90;;;;;;5033494;28;19909;-72
2022/11/01 03:02:04;;;;;;;;;;;16.50;99.90;;;;;;5051235;28;19909;-71
2022/11/01 03:04:30;;;;;;;;;;;16.40;99.90;;;;;;5032978;28;20286;-72
2022/11/01 03:06:58;;;;;;;;;;;16.40;99.90;;;;;;5032830;28;19910;-72
2022/11/01 03:09:24;;;;;;;;;;;16.40;99.90;;;;;;5033147;28;19916;-72
2022/11/01 03:11:54;;;;;;;;;;;16.30;99.90;;;;;;5050775;28;19971;-71
2022/11/01 03:14:25;;;;;;;;;;;16.30;99.90;;;;;;5050808;28;19916;-72
2022/11/01 03:16:59;;;;;;;;;;;16.20;99.90;;;;;;5050736;28;19932;-71
2022/11/01 03:19:30;;;;;;;;;;;16.10;99.90;;;;;;5050358;28;19915;-72
2022/11/01 03:21:59;;;;;;;;;;;16.00;99.90;;;;;;5033039;28;19909;-72
2022/11/01 03:24:27;;;;;;;;;;;16.00;99.90;;;;;;5033097;28;19909;-72
2022/11/01 03:26:59;;;;;;;;;;;16.00;99.90;;;;;;5032419;28;19910;-71
2022/11/01 03:29:26;;;;;;;;;;;15.90;99.90;;;;;;5050460;28;19909;-72
2022/11/01 03:31:52;;;;;;;;;;;16.00;99.90;;;;;;5050278;28;20026;-71
2022/11/01 03:34:18;;;;;;;;;;;16.10;99.90;;;;;;5032772;28;20067;-71
2022/11/01 03:36:47;;;;;;;;;;;16.00;99.90;;;;;;5032720;28;20389;-71
2022/11/01 03:39:19;;;;;;;;;;;16.10;99.90;;;;;;5032283;28;19909;-71
2022/11/01 03:41:47;;;;;;;;;;;16.10;99.90;;;;;;5028181;28;19909;-71
2022/11/01 03:44:13;;;;;;;;;;;16.10;99.90;;;;;;5019144;28;19916;-71
2022/11/01 03:46:39;;;;;;;;;;;16.20;99.90;;;;;;5019319;28;19913;-71
2022/11/01 03:49:05;;;;;;;;;;;16.30;99.90;;;;;;5036783;28;19909;-71
2022/11/01 03:51:30;;;;;;;;;;;16.50;99.90;;;;;;5018955;28;19917;-71
2022/11/01 03:53:55;;;;;;;;;;;16.60;99.90;;;;;;5036569;28;19909;-71
2022/11/01 03:56:21;;;;;;;;;;;16.70;99.90;;;;;;5036455;28;20347;-72
2022/11/01 03:58:46;;;;;;;;;;;16.80;99.90;;;;;;5018619;28;20294;-72
2022/11/01 04:01:14;;;;;;;;;;;16.90;99.90;;;;;;5019090;28;19909;-71
2022/11/01 04:03:40;;;;;;;;;;;17.00;99.90;;;;;;5018929;28;19909;-72
2022/11/01 04:06:05;;;;;;;;;;;17.00;99.90;;;;;;5036417;28;19909;-71
2022/11/01 04:08:31;;;;;;;;;;;17.10;99.90;;;;;;5002252;28;19916;-71
2022/11/01 04:10:56;;;;;;;;;;;17.00;99.90;;;;;;5036469;28;19920;-71
2022/11/01 04:13:22;;;;;;;;;;;17.10;99.90;;;;;;5018973;28;19971;-71
2022/11/01 04:21:20;;;;;;;;;;;17.10;99.90;;;;;;5035723;28;19928;-71
2022/11/01 04:23:46;;;;;;;;;;;17.10;99.90;;;;;;5018517;28;20286;-71
2022/11/01 04:26:12;;;;;;;;;;;17.20;99.90;;;;;;5018096;28;19916;-71
2022/11/01 04:28:38;;;;;;;;;;;17.20;99.90;;;;;;5035744;28;19945;-71
2022/11/01 04:31:04;;;;;;;;;;;17.20;99.90;;;;;;5017855;28;19957;-71
2022/11/01 04:33:30;;;;;;;;;;;17.30;99.90;;;;;;5018214;28;19959;-71
2022/11/01 04:35:55;;;;;;;;;;;17.20;99.90;;;;;;5018280;28;19913;-72
2022/11/01 04:38:21;;;;;;;;;;;17.20;99.90;;;;;;5017954;28;19916;-72
2022/11/01 04:40:46;;;;;;;;;;;17.20;99.90;;;;;;5002082;28;19996;-71
2022/11/01 04:43:12;;;;;;;;;;;17.30;99.90;;;;;;5018136;28;19963;-72
2022/11/01 04:45:38;;;;;;;;;;;17.30;99.90;;;;;;5018068;28;19910;-71
2022/11/01 04:48:05;;;;;;;;;;;17.30;99.90;;;;;;5017763;28;19909;-71
2022/11/01 04:50:31;;;;;;;;;;;17.30;99.90;;;;;;5035447;28;19917;-71
2022/11/01 04:52:58;;;;;;;;;;;17.30;99.90;;;;;;5017540;28;19958;-72
2022/11/01 04:55:23;;;;;;;;;;;17.20;99.90;;;;;;5017318;28;19909;-71
2022/11/01 04:57:49;;;;;;;;;;;17.20;99.90;;;;;;5017913;28;19916;-71
2022/11/01 05:00:14;;;;;;;;;;;17.20;99.90;;;;;;5017846;28;19909;-71
2022/11/01 05:02:40;;;;;;;;;;;17.10;99.90;;;;;;5017624;28;19916;-72
2022/11/01 05:05:06;;;;;;;;;;;17.20;99.90;;;;;;5035565;28;20004;-72
2022/11/01 05:07:32;;;;;;;;;;;17.20;99.90;;;;;;5035178;28;20008;-71
2022/11/01 05:09:58;;;;;;;;;;;17.20;99.90;;;;;;5017588;28;20051;-72
2022/11/01 05:12:23;;;;;;;;;;;17.10;99.90;;;;;;5017596;28;19952;-71
2022/11/01 05:14:49;;;;;;;;;;;17.20;99.90;;;;;;5035546;28;19913;-71
2022/11/01 05:17:14;;;;;;;;;;;17.10;99.90;;;;;;5017991;28;19916;-71
2022/11/01 05:19:40;;;;;;;;;;;17.10;99.90;;;;;;5017448;28;19909;-71
2022/11/01 05:22:05;;;;;;;;;;;17.10;99.90;;;;;;5035226;28;19956;-72
2022/11/01 05:24:31;;;;;;;;;;;17.10;99.90;;;;;;5035215;28;19909;-71
2022/11/01 05:26:56;;;;;;;;;;;17.10;99.90;;;;;;5034892;28;19909;-71
2022/11/01 05:29:22;;;;;;;;;;;17.10;99.90;;;;;;5017395;28;19909;-72
2022/11/01 05:31:47;;;;;;;;;;;17.10;99.90;;;;;;5034504;28;20375;-72
2022/11/01 05:34:13;;;;;;;;;;;17.10;99.90;;;;;;5034616;28;19909;-72
2022/11/01 05:36:38;;;;;;;;;;;17.10;99.90;;;;;;5034876;28;20063;-71
2022/11/01 05:39:04;;;;;;;;;;;17.00;99.90;;;;;;5034514;28;19909;-71
2022/11/01 05:41:29;;;;;;;;;;;17.00;99.90;;;;;;5017474;28;19949;-71
2022/11/01 05:43:55;;;;;;;;;;;17.00;99.90;;;;;;5034504;28;19916;-71
2022/11/01 05:46:35;;;;;;;;;;;17.00;99.90;;;;;;5016839;28;20004;-72
2022/11/01 05:49:00;;;;;;;;;;;17.00;99.90;;;;;;5017030;28;19936;-71
2022/11/01 05:51:26;;;;;;;;;;;16.90;99.90;;;;;;5034352;28;19917;-71
2022/11/01 05:53:51;;;;;;;;;;;16.90;99.90;;;;;;5016857;28;19910;-71
2022/11/01 05:56:17;;;;;;;;;;;16.90;99.90;;;;;;5016617;28;19913;-71
2022/11/01 05:58:43;;;;;;;;;;;16.80;99.90;;;;;;5034468;28;19916;-71
2022/11/01 06:01:08;;;;;;;;;;;16.80;99.90;;;;;;5000781;28;19913;-71
2022/11/01 06:03:35;;;;;;;;;;;16.60;99.90;;;;;;5016678;28;19909;-71
2022/11/01 06:06:00;;;;;;;;;;;16.70;99.90;;;;;;5034455;28;19932;-72
2022/11/01 06:08:26;;;;;;;;;;;16.70;99.90;;;;;;5017394;28;19909;-72
2022/11/01 06:10:51;;;;;;;;;;;16.60;99.90;;;;;;5034874;28;19913;-72
2022/11/01 06:13:17;;;;;;;;;;;16.60;99.90;;;;;;5016531;28;20378;-71
2022/11/01 06:15:42;;;;;;;;;;;16.60;99.90;;;;;;5033978;28;19909;-71
2022/11/01 06:18:08;;;;;;;;;;;16.60;99.90;;;;;;5034042;28;19914;-71
2022/11/01 06:20:35;;;;;;;;;;;16.50;99.90;;;;;;5034117;28;19910;-71
2022/11/01 06:23:06;;;;;;;;;;;16.50;99.90;;;;;;5034085;28;19932;-72
2022/11/01 06:25:32;;;;;;;;;;;16.50;99.90;;;;;;5033800;28;19909;-72
2022/11/01 06:27:57;;;;;;;;;;;16.50;99.90;;;;;;5016525;28;19915;-71
2022/11/01 06:30:23;;;;;;;;;;;16.60;99.90;;;;;;5034366;28;19913;-71
2022/11/01 06:32:48;;;;;;;;;;;16.50;99.90;;;;;;5034031;28;19971;-72
2022/11/01 06:35:14;;;;;;;;;;;16.60;99.90;;;;;;5034070;28;19909;-71
2022/11/01 06:37:39;;;;;;;;;;;16.50;99.90;;;;;;5033963;28;19956;-71
2022/11/01 06:40:05;;;;;;;;;;;16.50;99.90;;;;;;5033845;28;20051;-71
2022/11/01 06:42:31;;;;;;;;;;;16.60;99.90;;;;;;5016429;28;19910;-72
2022/11/01 06:44:57;;;;;;;;;;;16.50;99.90;;;;;;5034341;28;20367;-71
2022/11/01 06:47:22;;;;;;;;;;;16.50;99.90;;;;;;5000065;28;19913;-72
2022/11/01 06:49:48;;;;;;;;;;;16.50;99.90;;;;;;4999774;28;19963;-71
2022/11/01 06:52:13;;;;;;;;;;;16.60;99.90;;;;;;5034068;28;19996;-72
2022/11/01 06:54:39;;;;;;;;;;;16.60;99.90;;;;;;5034100;28;19932;-71
2022/11/01 06:57:04;;;;;;;;;;;16.50;99.90;;;;;;4999680;28;19992;-71
2022/11/01 06:59:30;;;;;;;;;;;16.50;99.90;;;;;;4999617;28;20438;-72
2022/11/01 07:01:55;;;;;;;;;;;16.50;99.90;;;;;;5000236;28;19956;-71
2022/11/01 07:04:21;;;;;;;;;;;16.50;99.90;;;;;;5034376;28;19909;-71
2022/11/01 07:06:46;;;;;;;;;;;16.60;99.90;;;;;;5033717;28;19916;-71
2022/11/01 07:09:12;;;;;;;;;;;16.60;99.90;;;;;;5033819;28;19910;-72
2022/11/01 07:11:38;;;;;;;;;;;16.50;99.90;;;;;;4999552;28;20261;-71
2022/11/01 07:14:03;;;;;;;;;;;16.50;99.90;;;;;;5016118;28;19913;-71
2022/11/01 07:16:30;;;;;;;;;;;16.40;99.90;;;;;;5016039;28;20363;-71
2022/11/01 07:18:55;;;;;;;;;;;16.50;99.90;;;;;;5038687;28;19917;-71
2022/11/01 07:21:21;;;;;;;;;;;16.50;99.90;;;;;;5019694;28;19997;-72
2022/11/01 07:23:47;;;;;;;;;;;16.50;99.90;;;;;;5019565;28;19959;-71
2022/11/01 07:26:12;;;;;;;;;;;16.50;99.90;;;;;;5037543;28;19909;-71
2022/11/01 07:28:38;;;;;;;;;;;16.50;99.90;;;;;;5019722;28;19920;-72
2022/11/01 07:31:04;;;;;;;;;;;16.50;99.90;;;;;;5019123;28;19917;-72
2022/11/01 07:33:29;;;;;;;;;;;16.50;99.90;;;;;;5019492;28;19909;-72
2022/11/01 07:35:55;;;;;;;;;;;16.50;99.90;;;;;;5003181;28;19913;-71
2022/11/01 07:38:20;;;;;;;;;;;16.60;99.90;;;;;;5019297;28;19948;-71
2022/11/01 07:40:48;;;;;;;;;;;16.50;99.90;;;;;;5003318;28;19909;-71
2022/11/01 07:43:15;;;;;;;;;;;16.40;99.90;;;;;;5020030;28;19909;-71
2022/11/01 07:45:41;;;;;;;;;;;16.40;99.90;;;;;;5019456;28;19916;-71
2022/11/01 07:48:09;;;;;;;;;;;16.30;99.90;;;;;;5003317;28;19909;-71
2022/11/01 07:50:35;;;;;;;;;;;16.20;99.90;;;;;;5037319;28;19921;-71
2022/11/01 07:53:01;;;;;;;;;;;16.10;99.90;;;;;;5002557;28;19909;-72
2022/11/01 07:55:27;;;;;;;;;;;16.10;99.90;;;;;;5019511;28;19932;-71
2022/11/01 07:57:52;;;;;;;;;;;16.10;99.90;;;;;;5018930;28;19909;-72
2022/11/01 08:00:18;;;;;;;;;;;16.10;99.90;;;;;;5036669;28;19999;-71
2022/11/01 08:02:43;;;;;;;;;;;16.00;99.90;;;;;;5002564;28;20004;-71
2022/11/01 08:05:10;;;;;;;;;;;16.00;99.90;;;;;;5018793;28;19909;-72
2022/11/01 08:07:37;;;;;;;;;;;16.00;99.90;;;;;;5018959;28;19909;-72
2022/11/01 08:10:03;;;;;;;;;;;16.00;99.90;;;;;;5036522;28;19916;-72
2022/11/01 08:12:28;;;;;;;;;;;15.90;99.90;;;;;;5036603;28;19913;-71
2022/11/01 08:14:53;;;;;;;;;;;16.10;99.90;;;;;;5036491;28;20367;-72
2022/11/01 08:17:19;;;;;;;;;;;16.50;99.90;;;;;;5036453;28;19931;-71
2022/11/01 08:19:44;;;;;;;;;;;16.70;99.90;;;;;;5036480;28;19913;-71
2022/11/01 08:22:10;;;;;;;;;;;16.60;99.90;;;;;;5018573;28;19916;-71
2022/11/01 08:24:35;;;;;;;;;;;16.80;99.90;;;;;;5018282;28;19940;-71
2022/11/01 08:27:02;;;;;;;;;;;16.90;99.90;;;;;;5036179;28;19965;-72
2022/11/01 08:29:27;;;;;;;;;;;17.10;99.90;;;;;;5036401;28;19909;-71
2022/11/01 08:31:53;;;;;;;;;;;17.40;99.90;;;;;;5018009;28;20329;-71
2022/11/01 08:34:18;;;;;;;;;;;17.70;99.90;;;;;;5018158;28;19936;-71
2022/11/01 08:36:44;;;;;;;;;;;18.40;99.90;;;;;;5002279;28;19909;-73
2022/11/01 08:39:09;;;;;;;;;;;18.80;99.90;;;;;;5018628;28;19959;-72
2022/11/01 08:41:35;;;;;;;;;;;19.00;99.90;;;;;;5036094;28;19955;-72
2022/11/01 08:44:01;;;;;;;;;;;19.10;99.90;;;;;;5018325;28;19909;-72
2022/11/01 08:46:26;;;;;;;;;;;18.70;99.90;;;;;;5036243;28;19960;-72
2022/11/01 08:48:55;;;;;;;;;;;18.70;99.90;;;;;;5036082;28;19909;-72
2022/11/01 08:51:24;;;;;;;;;;;18.80;99.90;;;;;;5036075;28;20431;-72
2022/11/01 08:53:54;;;;;;;;;;;18.80;99.90;;;;;;5019011;28;20382;-72
2022/11/01 08:56:20;;;;;;;;;;;18.60;99.90;;;;;;5035662;28;20505;-72
2022/11/01 08:58:47;;;;;;;;;;;18.80;99.90;;;;;;5018266;28;19916;-71
2022/11/01 09:01:13;;;;;;;;;;;18.90;99.90;;;;;;5018396;28;19909;-72
2022/11/01 09:03:38;;;;;;;;;;;19.20;99.90;;;;;;5017850;28;19920;-72
2022/11/01 09:06:04;;;;;;;;;;;19.30;99.90;;;;;;5017684;28;19959;-72
2022/11/01 09:08:29;;;;;;;;;;;18.70;99.90;;;;;;5035854;28;19959;-72
2022/11/01 09:10:56;;;;;;;;;;;18.80;99.90;;;;;;5036185;28;19964;-72
2022/11/01 09:13:22;;;;;;;;;;;18.90;99.90;;;;;;5035517;28;19916;-71
2022/11/01 09:15:47;;;;;;;;;;;19.20;99.90;;;;;;5001048;28;19909;-72
2022/11/01 09:18:13;;;;;;;;;;;19.10;99.90;;;;;;5017300;28;20003;-72
2022/11/01 09:20:38;;;;;;;;;;;19.40;99.90;;;;;;5035169;28;19920;-72
2022/11/01 09:23:04;;;;;;;;;;;19.40;99.90;;;;;;5017628;28;20016;-72
2022/11/01 09:25:29;;;;;;;;;;;19.30;99.90;;;;;;5017792;28;19916;-72
2022/11/01 09:27:56;;;;;;;;;;;18.80;99.90;;;;;;5035399;28;19913;-71
2022/11/01 09:30:22;;;;;;;;;;;18.90;99.90;;;;;;5035008;28;20393;-71
2022/11/01 09:32:47;;;;;;;;;;;18.40;99.90;;;;;;5035228;28;19913;-72
2022/11/01 09:35:13;;;;;;;;;;;18.90;99.90;;;;;;5034916;28;19940;-72
2022/11/01 09:37:38;;;;;;;;;;;18.80;99.90;;;;;;5017197;28;19917;-72
2022/11/01 09:40:04;;;;;;;;;;;19.00;99.90;;;;;;5016657;28;20035;-72
2022/11/01 09:42:33;;;;;;;;;;;18.50;99.90;;;;;;5018039;28;19909;-72
2022/11/01 09:45:01;;;;;;;;;;;18.90;99.90;;;;;;5034621;28;20294;-72
2022/11/01 09:47:28;;;;;;;;;;;18.70;99.90;;;;;;5034721;28;19916;-72
2022/11/01 09:50:02;;;;;;;;;;;18.70;99.90;;;;;;5016934;28;20360;-72
2022/11/01 09:52:28;;;;;;;;;;;18.70;99.90;;;;;;5001093;28;19913;-73
2022/11/01 09:54:53;;;;;;;;;;;19.20;99.90;;;;;;5017481;28;19948;-72
2022/11/01 09:57:22;;;;;;;;;;;19.10;99.90;;;;;;5000727;28;20412;-72
2022/11/01 10:00:08;;;;;;;;;;;19.40;99.90;;;;;;5034816;28;19909;-73
2022/11/01 10:02:54;;;;;;;;;;;19.20;99.90;;;;;;5034857;28;19917;-72
2022/11/01 10:05:25;;;;;;;;;;;19.10;99.90;;;;;;5034532;28;19909;-72
2022/11/01 10:08:11;;;;;;;;;;;18.60;99.90;;;;;;5017009;28;20006;-72
2022/11/01 10:10:38;;;;;;;;;;;18.80;99.90;;;;;;5016573;28;19928;-72
2022/11/01 10:13:24;;;;;;;;;;;19.20;99.90;;;;;;5016812;28;19909;-72
2022/11/01 10:15:55;;;;;;;;;;;19.20;99.90;;;;;;5034501;28;20402;-72
2022/11/01 10:21:05;;;;;;;;;;;19.40;99.90;;;;;;5119610;27;19916;-72
2022/11/01 10:23:34;;;;;;;;;;;19.00;99.90;;;;;;5113690;28;19911;-71
2022/11/01 10:26:00;;;;;;;;;;;19.20;99.90;;;;;;5113093;28;19908;-72
2022/11/01 10:28:45;;;;;;;;;;;19.20;99.90;;;;;;5095101;28;19922;-71
2022/11/01 10:31:14;;;;;;;;;;;19.20;99.90;;;;;;5112952;28;19908;-72
2022/11/01 10:33:45;;;;;;;;;;;19.00;99.90;;;;;;5095208;28;19994;-73
2022/11/01 10:36:14;;;;;;;;;;;18.80;99.90;;;;;;5146288;27;19908;-72
2022/11/01 10:38:46;;;;;;;;;;;19.00;99.90;;;;;;5113320;28;19915;-72
2022/11/01 10:41:17;;;;;;;;;;;19.10;99.90;;;;;;5111968;28;19908;-73
2022/11/01 10:43:46;;;;;;;;;;;19.20;99.90;;;;;;5112989;28;19917;-73
2022/11/01 10:46:16;;;;;;;;;;;19.00;99.90;;;;;;5112556;28;19908;-74
2022/11/01 10:48:45;;;;;;;;;;;19.20;99.90;;;;;;5111544;28;19907;-73
2022/11/01 10:51:11;;;;;;;;;;;19.30;99.90;;;;;;5110559;28;19955;-72
2022/11/01 10:53:41;;;;;;;;;;;19.20;99.90;;;;;;5110873;28;19912;-73
2022/11/01 10:56:08;;;;;;;;;;;18.60;99.90;;;;;;5111941;28;20325;-73
2022/11/01 10:58:45;;;;;;;;;;;18.30;99.90;;;;;;5111801;28;19990;-73
2022/11/01 11:01:18;;;;;;;;;;;18.80;99.90;;;;;;5114731;28;19908;-73
2022/11/01 11:03:44;;;;;;;;;;;18.80;99.90;;;;;;5145494;27;19916;-72
2022/11/01 11:06:15;;;;;;;;;;;18.90;99.90;;;;;;5111474;28;19908;-73
2022/11/01 11:08:47;;;;;;;;;;;19.10;99.90;;;;;;5096081;28;19959;-73
2022/11/01 11:11:14;;;;;;;;;;;19.00;99.90;;;;;;5113743;28;19908;-73
2022/11/01 11:13:42;;;;;;;;;;;18.80;99.90;;;;;;5111275;28;20284;-73
2022/11/01 11:16:20;;;;;;;;;;;18.40;99.90;;;;;;5095757;28;19908;-73
2022/11/01 11:18:59;;;;;;;;;;;18.50;99.90;;;;;;5112503;28;19998;-74
2022/11/01 11:21:31;;;;;;;;;;;18.10;99.90;;;;;;5094779;28;19915;-73
2022/11/01 11:23:56;;;;;;;;;;;17.90;99.90;;;;;;5093590;28;19908;-74
2022/11/01 11:26:24;;;;;;;;;;;17.90;99.90;;;;;;5110051;28;20089;-74
2022/11/01 11:28:51;;;;;;;;;;;18.00;99.90;;;;;;5111005;28;20323;-73
2022/11/01 11:31:33;;;;;;;;;;;18.20;99.90;;;;;;5104805;28;19961;-73
2022/11/01 11:34:11;;;;;;;;;;;18.30;99.90;;;;;;5099761;28;19934;-72
2022/11/01 11:36:40;;;;;;;;;;;18.10;99.90;;;;;;5098110;28;19908;-73
2022/11/01 11:39:06;;;;;;;;;;;18.20;99.90;;;;;;5096538;28;20285;-73
2022/11/01 11:41:35;;;;;;;;;;;18.10;99.90;;;;;;5097238;28;19915;-73
2022/11/01 11:44:00;;;;;;;;;;;18.40;99.90;;;;;;5099112;28;19915;-73
2022/11/01 11:46:26;;;;;;;;;;;18.40;99.90;;;;;;5097227;28;19908;-72
2022/11/01 11:48:55;;;;;;;;;;;18.30;99.90;;;;;;5097762;28;19912;-73
2022/11/01 11:51:21;;;;;;;;;;;18.30;99.90;;;;;;5096084;28;19914;-73
2022/11/01 11:54:03;;;;;;;;;;;18.20;99.90;;;;;;5097254;28;19912;-72
2022/11/01 11:56:29;;;;;;;;;;;18.40;99.90;;;;;;5096790;28;19957;-72
2022/11/01 11:58:55;;;;;;;;;;;18.30;99.90;;;;;;5095296;28;19912;-72
2022/11/01 12:01:22;;;;;;;;;;;18.30;99.90;;;;;;5096450;28;19977;-72
2022/11/01 12:03:50;;;;;;;;;;;18.40;99.90;;;;;;5079156;28;19915;-73
2022/11/01 12:06:18;;;;;;;;;;;18.60;99.90;;;;;;5096854;28;20373;-73
2022/11/01 12:08:45;;;;;;;;;;;18.50;99.90;;;;;;5096871;28;19931;-71
2022/11/01 12:11:11;;;;;;;;;;;18.40;99.90;;;;;;5078625;28;19916;-73
2022/11/01 12:13:40;;;;;;;;;;;18.40;99.90;;;;;;5096481;28;19912;-73
2022/11/01 12:16:06;;;;;;;;;;;18.30;99.90;;;;;;5096628;28;19908;-73
2022/11/01 12:18:32;;;;;;;;;;;18.30;99.90;;;;;;5095431;28;19908;-74
2022/11/01 12:20:58;;;;;;;;;;;18.00;99.90;;;;;;5096529;28;19927;-72
2022/11/01 12:23:30;;;;;;;;;;;17.80;99.90;;;;;;5078841;28;19909;-72
2022/11/01 12:25:58;;;;;;;;;;;18.20;99.90;;;;;;5095018;28;19979;-73
2022/11/01 12:28:29;;;;;;;;;;;18.20;99.90;;;;;;5095396;28;19957;-73
2022/11/01 12:30:58;;;;;;;;;;;18.30;99.90;;;;;;5096071;28;19912;-74
2022/11/01 12:33:25;;;;;;;;;;;18.30;99.90;;;;;;5077914;28;19923;-74
2022/11/01 12:35:53;;;;;;;;;;;18.40;99.90;;;;;;5079055;28;19912;-73
2022/11/01 12:38:39;;;;;;;;;;;18.40;99.90;;;;;;5094950;28;20002;-73
2022/11/01 12:41:25;;;;;;;;;;;18.20;99.90;;;;;;5094652;28;19935;-74
2022/11/01 12:43:56;;;;;;;;;;;18.20;99.90;;;;;;5093441;28;19961;-74
2022/11/01 12:46:39;;;;;;;;;;;18.10;99.90;;;;;;5128830;27;19931;-74
2022/11/01 12:49:10;;;;;;;;;;;18.00;99.90;;;;;;5095968;28;19916;-73
2022/11/01 12:51:39;;;;;;;;;;;18.00;99.90;;;;;;5095806;28;19909;-74
2022/11/01 12:54:26;;;;;;;;;;;17.90;99.90;;;;;;5095760;28;19912;-75
2022/11/01 12:56:53;;;;;;;;;;;18.00;99.90;;;;;;5096249;28;20289;-74
2022/11/01 12:59:25;;;;;;;;;;;18.10;99.90;;;;;;5078004;28;20376;-74
2022/11/01 13:02:03;;;;;;;;;;;18.20;99.90;;;;;;5095566;28;20007;-74
2022/11/01 13:04:32;;;;;;;;;;;18.10;99.90;;;;;;5095385;28;19915;-74
2022/11/01 13:07:18;;;;;;;;;;;18.00;99.90;;;;;;5094170;28;19931;-74
2022/11/01 13:09:47;;;;;;;;;;;17.80;99.90;;;;;;5094204;28;19930;-73
2022/11/01 13:12:33;;;;;;;;;;;17.80;99.90;;;;;;5128129;27;19909;-74
2022/11/01 13:15:18;;;;;;;;;;;17.90;99.90;;;;;;5093788;28;19965;-74
2022/11/01 13:17:51;;;;;;;;;;;17.80;99.90;;;;;;5093968;28;19908;-74
2022/11/01 13:20:37;;;;;;;;;;;17.70;99.90;;;;;;5094894;28;19978;-74
2022/11/01 13:23:22;;;;;;;;;;;17.80;99.90;;;;;;5095752;28;19916;-74
2022/11/01 13:25:54;;;;;;;;;;;17.60;99.90;;;;;;5095683;28;20002;-74
2022/11/01 13:28:28;;;;;;;;;;;17.70;99.90;;;;;;5093776;28;20323;-74
2022/11/01 13:31:13;;;;;;;;;;;17.80;99.90;;;;;;5094005;28;19953;-74
2022/11/01 13:33:59;;;;;;;;;;;17.80;99.90;;;;;;5094559;28;19914;-74
2022/11/01 13:36:44;;;;;;;;;;;17.80;99.90;;;;;;5095300;28;19912;-73
2022/11/01 13:39:17;;;;;;;;;;;17.70;99.90;;;;;;5095466;28;19912;-73
2022/11/01 13:42:03;;;;;;;;;;;17.70;99.90;;;;;;5094320;28;20389;-74
2022/11/01 13:44:31;;;;;;;;;;;17.80;99.90;;;;;;5093703;28;20323;-74
2022/11/01 13:47:00;;;;;;;;;;;17.70;99.90;;;;;;5093532;28;20270;-74
2022/11/01 13:49:35;;;;;;;;;;;17.60;99.90;;;;;;5094087;28;20426;-74
2022/11/01 13:52:20;;;;;;;;;;;17.60;99.90;;;;;;5077021;28;19930;-74
2022/11/01 13:54:55;;;;;;;;;;;17.70;99.90;;;;;;5094710;28;20335;-74
2022/11/01 13:57:23;;;;;;;;;;;17.70;99.90;;;;;;5093590;28;19915;-74
2022/11/01 14:02:32;;;;;;;;;;;17.60;99.90;;;;;;5066286;22;19963;-74
2022/11/01 14:05:00;;;;;;;;;;;17.60;99.90;;;;;;5051015;28;19913;-74
2022/11/01 14:07:29;;;;;;;;;;;17.70;99.90;;;;;;5033420;28;20428;-73
2022/11/01 14:09:55;;;;;;;;;;;17.70;99.90;;;;;;5051197;28;19913;-75
2022/11/01 14:12:40;;;;;;;;;;;17.70;99.90;;;;;;5050989;28;19910;-74
2022/11/01 14:15:14;;;;;;;;;;;17.60;99.90;;;;;;5050990;28;19916;-75
2022/11/01 14:20:39;;;;;;;;;;;17.30;99.90;;;;;;5106959;27;1902052;-75
2022/11/01 14:23:26;;;;;;;;;;;17.30;99.90;;;;;;5174004;27;19917;-75
2022/11/01 14:26:11;;;;;;;;;;;17.30;99.90;;;;;;5173541;27;19907;-75
2022/11/01 14:28:41;;;;;;;;;;;17.30;99.90;;;;;;5173372;27;19911;-75
2022/11/01 14:31:06;;;;;;;;;;;17.30;99.90;;;;;;5173382;27;20065;-75
2022/11/01 14:33:32;;;;;;;;;;;17.20;99.90;;;;;;5173323;27;19960;-75
2022/11/01 14:35:58;;;;;;;;;;;17.20;99.90;;;;;;5173300;27;19907;-75
2022/11/01 14:38:30;;;;;;;;;;;17.20;99.90;;;;;;5173248;27;19976;-75
2022/11/01 14:40:57;;;;;;;;;;;17.10;99.90;;;;;;5173275;27;19907;-75
2022/11/01 14:43:41;;;;;;;;;;;17.10;99.90;;;;;;5173174;27;19914;-75